sensor_id;sensor_type;location;lat;lon;timestamp;temperature;humidity
48328;DHT22;34136;51.022;7.082;2023-01-08T00:02:21;10.90;1.00
48328;DHT22;34136;51.022;7.082;2023-01-08T00:05:07;10.90;1.00
48328;DHT22;34136;51.022;7.082;2023-01-08T00:07:53;10.90;1.00
48328;DHT22;34136;51.022;7.082;2023-01-08T00:10:39;10.90;1.00
48328;DHT22;34136;51.022;7.082;2023-01-08T00:13:25;10.90;1.00
48328;DHT22;34136;51.022;7.082;2023-01-08T00:16:15;10.90;1.00
48328;DHT22;34136;51.022;7.082;2023-01-08T00:19:01;10.90;1.00
48328;DHT22;34136;51.022;7.082;2023-01-08T00:21:47;10.90;1.00
48328;DHT22;34136;51.022;7.082;2023-01-08T00:24:33;10.90;1.30
48328;DHT22;34136;51.022;7.082;2023-01-08T00:27:19;10.90;1.30
48328;DHT22;34136;51.022;7.082;2023-01-08T00:30:06;10.90;1.10
48328;DHT22;34136;51.022;7.082;2023-01-08T00:32:52;10.90;1.40
48328;DHT22;34136;51.022;7.082;2023-01-08T00:35:39;10.90;1.80
48328;DHT22;34136;51.022;7.082;2023-01-08T00:38:28;10.90;2.30
48328;DHT22;34136;51.022;7.082;2023-01-08T00:41:15;10.80;1.70
48328;DHT22;34136;51.022;7.082;2023-01-08T00:44:01;10.90;1.60
48328;DHT22;34136;51.022;7.082;2023-01-08T00:46:47;10.90;2.00
48328;DHT22;34136;51.022;7.082;2023-01-08T00:49:34;10.90;2.10
48328;DHT22;34136;51.022;7.082;2023-01-08T00:52:20;10.90;2.30
48328;DHT22;34136;51.022;7.082;2023-01-08T00:55:06;10.90;2.40
48328;DHT22;34136;51.022;7.082;2023-01-08T00:57:52;10.80;2.60
48328;DHT22;34136;51.022;7.082;2023-01-08T01:00:39;10.90;2.60
48328;DHT22;34136;51.022;7.082;2023-01-08T01:03:25;10.90;2.60
48328;DHT22;34136;51.022;7.082;2023-01-08T01:06:12;10.90;2.60
48328;DHT22;34136;51.022;7.082;2023-01-08T01:08:58;10.90;2.30
48328;DHT22;34136;51.022;7.082;2023-01-08T01:11:45;10.90;2.40
48328;DHT22;34136;51.022;7.082;2023-01-08T01:14:31;10.90;3.40
48328;DHT22;34136;51.022;7.082;2023-01-08T01:17:17;10.90;2.70
48328;DHT22;34136;51.022;7.082;2023-01-08T01:20:05;10.90;2.40
48328;DHT22;34136;51.022;7.082;2023-01-08T01:22:51;10.90;2.50
48328;DHT22;34136;51.022;7.082;2023-01-08T01:25:37;10.90;2.80
48328;DHT22;34136;51.022;7.082;2023-01-08T01:28:24;10.90;2.50
48328;DHT22;34136;51.022;7.082;2023-01-08T01:31:12;11.00;2.50
48328;DHT22;34136;51.022;7.082;2023-01-08T01:33:58;11.00;2.40
48328;DHT22;34136;51.022;7.082;2023-01-08T01:36:44;11.00;2.30
48328;DHT22;34136;51.022;7.082;2023-01-08T01:39:31;11.10;2.50
48328;DHT22;34136;51.022;7.082;2023-01-08T01:42:19;11.00;2.30
48328;DHT22;34136;51.022;7.082;2023-01-08T01:45:25;11.00;2.60
48328;DHT22;34136;51.022;7.082;2023-01-08T01:48:13;11.10;2.20
48328;DHT22;34136;51.022;7.082;2023-01-08T01:51:00;11.00;2.20
48328;DHT22;34136;51.022;7.082;2023-01-08T01:53:47;11.00;2.40
48328;DHT22;34136;51.022;7.082;2023-01-08T01:56:34;11.00;2.40
48328;DHT22;34136;51.022;7.082;2023-01-08T01:59:21;11.00;2.80
48328;DHT22;34136;51.022;7.082;2023-01-08T02:02:07;11.00;3.00
48328;DHT22;34136;51.022;7.082;2023-01-08T02:04:53;10.90;4.00
48328;DHT22;34136;51.022;7.082;2023-01-08T02:07:55;10.90;5.10
48328;DHT22;34136;51.022;7.082;2023-01-08T02:11:25;11.00;5.40
48328;DHT22;34136;51.022;7.082;2023-01-08T02:14:28;11.00;6.00
48328;DHT22;34136;51.022;7.082;2023-01-08T02:17:25;10.90;7.50
48328;DHT22;34136;51.022;7.082;2023-01-08T02:20:34;10.90;8.70
48328;DHT22;34136;51.022;7.082;2023-01-08T02:26:34;10.80;10.40
48328;DHT22;34136;51.022;7.082;2023-01-08T02:29:23;10.70;11.20
48328;DHT22;34136;51.022;7.082;2023-01-08T02:32:10;10.60;12.30
48328;DHT22;34136;51.022;7.082;2023-01-08T02:34:57;10.60;13.10
48328;DHT22;34136;51.022;7.082;2023-01-08T02:37:43;10.50;13.70
48328;DHT22;34136;51.022;7.082;2023-01-08T02:40:38;10.40;14.20
48328;DHT22;34136;51.022;7.082;2023-01-08T02:43:35;10.40;14.70
48328;DHT22;34136;51.022;7.082;2023-01-08T02:46:27;10.40;15.20
48328;DHT22;34136;51.022;7.082;2023-01-08T02:49:18;10.40;16.00
48328;DHT22;34136;51.022;7.082;2023-01-08T02:52:07;10.40;15.90
48328;DHT22;34136;51.022;7.082;2023-01-08T02:54:56;10.40;15.90
48328;DHT22;34136;51.022;7.082;2023-01-08T02:57:44;10.40;15.70
48328;DHT22;34136;51.022;7.082;2023-01-08T03:00:31;10.40;15.80
48328;DHT22;34136;51.022;7.082;2023-01-08T03:03:22;10.40;15.90
48328;DHT22;34136;51.022;7.082;2023-01-08T03:06:13;10.40;16.20
48328;DHT22;34136;51.022;7.082;2023-01-08T03:08:59;10.30;16.20
48328;DHT22;34136;51.022;7.082;2023-01-08T03:11:59;10.40;16.10
48328;DHT22;34136;51.022;7.082;2023-01-08T03:14:58;10.40;15.80
48328;DHT22;34136;51.022;7.082;2023-01-08T03:17:48;10.40;15.70
48328;DHT22;34136;51.022;7.082;2023-01-08T03:20:36;10.50;15.70
48328;DHT22;34136;51.022;7.082;2023-01-08T03:23:49;10.40;15.70
48328;DHT22;34136;51.022;7.082;2023-01-08T03:26:36;10.40;15.90
48328;DHT22;34136;51.022;7.082;2023-01-08T03:29:25;10.40;16.50
48328;DHT22;34136;51.022;7.082;2023-01-08T03:32:14;10.40;16.40
48328;DHT22;34136;51.022;7.082;2023-01-08T03:35:01;10.40;16.40
48328;DHT22;34136;51.022;7.082;2023-01-08T03:38:02;10.40;16.40
48328;DHT22;34136;51.022;7.082;2023-01-08T03:40:53;10.40;16.40
48328;DHT22;34136;51.022;7.082;2023-01-08T03:43:41;10.30;16.90
48328;DHT22;34136;51.022;7.082;2023-01-08T03:46:31;10.30;17.10
48328;DHT22;34136;51.022;7.082;2023-01-08T03:49:19;10.30;17.10
48328;DHT22;34136;51.022;7.082;2023-01-08T03:52:06;10.30;17.50
48328;DHT22;34136;51.022;7.082;2023-01-08T03:54:53;10.30;17.50
48328;DHT22;34136;51.022;7.082;2023-01-08T03:57:39;10.20;18.00
48328;DHT22;34136;51.022;7.082;2023-01-08T04:00:26;10.20;18.00
48328;DHT22;34136;51.022;7.082;2023-01-08T04:03:12;10.20;18.20
48328;DHT22;34136;51.022;7.082;2023-01-08T04:05:59;10.20;18.50
48328;DHT22;34136;51.022;7.082;2023-01-08T04:08:49;10.20;18.60
48328;DHT22;34136;51.022;7.082;2023-01-08T04:11:35;10.10;18.90
48328;DHT22;34136;51.022;7.082;2023-01-08T04:14:21;10.10;18.80
48328;DHT22;34136;51.022;7.082;2023-01-08T04:17:11;10.00;19.00
48328;DHT22;34136;51.022;7.082;2023-01-08T04:19:57;10.10;19.90
48328;DHT22;34136;51.022;7.082;2023-01-08T04:22:43;10.10;19.20
48328;DHT22;34136;51.022;7.082;2023-01-08T04:25:29;10.10;19.50
48328;DHT22;34136;51.022;7.082;2023-01-08T04:28:15;10.10;19.30
48328;DHT22;34136;51.022;7.082;2023-01-08T04:31:08;10.10;19.40
48328;DHT22;34136;51.022;7.082;2023-01-08T04:33:54;10.10;19.60
48328;DHT22;34136;51.022;7.082;2023-01-08T04:36:41;10.20;19.30
48328;DHT22;34136;51.022;7.082;2023-01-08T04:39:27;10.10;19.40
48328;DHT22;34136;51.022;7.082;2023-01-08T04:42:13;10.10;19.60
48328;DHT22;34136;51.022;7.082;2023-01-08T04:44:59;10.10;19.70
48328;DHT22;34136;51.022;7.082;2023-01-08T04:47:46;10.20;19.40
48328;DHT22;34136;51.022;7.082;2023-01-08T04:50:32;10.20;19.00
48328;DHT22;34136;51.022;7.082;2023-01-08T04:53:18;10.10;19.10
48328;DHT22;34136;51.022;7.082;2023-01-08T04:56:07;10.10;19.30
48328;DHT22;34136;51.022;7.082;2023-01-08T04:58:54;10.10;19.10
48328;DHT22;34136;51.022;7.082;2023-01-08T05:01:40;10.10;19.30
48328;DHT22;34136;51.022;7.082;2023-01-08T05:04:26;10.10;19.40
48328;DHT22;34136;51.022;7.082;2023-01-08T05:07:12;10.10;19.20
48328;DHT22;34136;51.022;7.082;2023-01-08T05:09:59;10.10;19.00
48328;DHT22;34136;51.022;7.082;2023-01-08T05:12:45;10.10;19.10
48328;DHT22;34136;51.022;7.082;2023-01-08T05:15:31;10.10;18.90
48328;DHT22;34136;51.022;7.082;2023-01-08T05:18:18;10.10;19.00
48328;DHT22;34136;51.022;7.082;2023-01-08T05:21:04;10.00;18.50
48328;DHT22;34136;51.022;7.082;2023-01-08T05:23:50;10.10;18.30
48328;DHT22;34136;51.022;7.082;2023-01-08T05:26:37;10.10;18.00
48328;DHT22;34136;51.022;7.082;2023-01-08T05:29:23;10.00;18.20
48328;DHT22;34136;51.022;7.082;2023-01-08T05:32:15;10.00;18.30
48328;DHT22;34136;51.022;7.082;2023-01-08T05:35:01;10.00;18.10
48328;DHT22;34136;51.022;7.082;2023-01-08T05:37:48;10.00;17.90
48328;DHT22;34136;51.022;7.082;2023-01-08T05:40:34;10.10;17.80
48328;DHT22;34136;51.022;7.082;2023-01-08T05:43:20;10.00;17.60
48328;DHT22;34136;51.022;7.082;2023-01-08T05:46:07;10.00;17.60
48328;DHT22;34136;51.022;7.082;2023-01-08T05:48:53;10.00;17.40
48328;DHT22;34136;51.022;7.082;2023-01-08T05:51:39;10.00;17.30
48328;DHT22;34136;51.022;7.082;2023-01-08T05:54:25;10.00;16.90
48328;DHT22;34136;51.022;7.082;2023-01-08T05:57:11;10.00;17.10
48328;DHT22;34136;51.022;7.082;2023-01-08T05:59:58;9.90;17.00
48328;DHT22;34136;51.022;7.082;2023-01-08T06:02:47;10.00;17.20
48328;DHT22;34136;51.022;7.082;2023-01-08T06:05:34;10.00;16.70
48328;DHT22;34136;51.022;7.082;2023-01-08T06:08:20;10.00;16.80
48328;DHT22;34136;51.022;7.082;2023-01-08T06:11:07;10.00;16.90
48328;DHT22;34136;51.022;7.082;2023-01-08T06:13:55;9.90;16.80
48328;DHT22;34136;51.022;7.082;2023-01-08T06:16:45;9.90;16.90
48328;DHT22;34136;51.022;7.082;2023-01-08T06:19:31;10.00;16.60
48328;DHT22;34136;51.022;7.082;2023-01-08T06:22:17;10.00;16.30
48328;DHT22;34136;51.022;7.082;2023-01-08T06:25:04;10.00;16.80
48328;DHT22;34136;51.022;7.082;2023-01-08T06:27:51;9.90;16.20
48328;DHT22;34136;51.022;7.082;2023-01-08T06:30:37;9.90;16.60
48328;DHT22;34136;51.022;7.082;2023-01-08T06:33:24;9.80;16.30
48328;DHT22;34136;51.022;7.082;2023-01-08T06:36:10;9.90;16.50
48328;DHT22;34136;51.022;7.082;2023-01-08T06:38:56;9.80;16.20
48328;DHT22;34136;51.022;7.082;2023-01-08T06:41:42;9.80;15.90
48328;DHT22;34136;51.022;7.082;2023-01-08T06:44:29;9.80;15.70
48328;DHT22;34136;51.022;7.082;2023-01-08T06:47:15;9.80;15.60
48328;DHT22;34136;51.022;7.082;2023-01-08T06:50:02;9.90;15.50
48328;DHT22;34136;51.022;7.082;2023-01-08T06:52:53;9.90;15.40
48328;DHT22;34136;51.022;7.082;2023-01-08T06:55:39;9.90;15.10
48328;DHT22;34136;51.022;7.082;2023-01-08T06:58:26;9.80;15.10
48328;DHT22;34136;51.022;7.082;2023-01-08T07:01:13;9.80;15.60
48328;DHT22;34136;51.022;7.082;2023-01-08T07:04:00;9.70;15.90
48328;DHT22;34136;51.022;7.082;2023-01-08T07:06:46;9.70;15.60
48328;DHT22;34136;51.022;7.082;2023-01-08T07:09:33;9.70;15.80
48328;DHT22;34136;51.022;7.082;2023-01-08T07:12:20;9.70;15.90
48328;DHT22;34136;51.022;7.082;2023-01-08T07:15:06;9.80;15.50
48328;DHT22;34136;51.022;7.082;2023-01-08T07:17:52;9.70;15.70
48328;DHT22;34136;51.022;7.082;2023-01-08T07:20:38;9.70;16.10
48328;DHT22;34136;51.022;7.082;2023-01-08T07:23:25;9.70;17.00
48328;DHT22;34136;51.022;7.082;2023-01-08T07:26:11;9.50;17.10
48328;DHT22;34136;51.022;7.082;2023-01-08T07:28:57;9.40;14.10
48328;DHT22;34136;51.022;7.082;2023-01-08T07:40:03;9.30;13.20
48328;DHT22;34136;51.022;7.082;2023-01-08T07:43:00;9.30;13.30
48328;DHT22;34136;51.022;7.082;2023-01-08T07:45:46;9.30;13.20
48328;DHT22;34136;51.022;7.082;2023-01-08T07:48:32;9.40;13.60
48328;DHT22;34136;51.022;7.082;2023-01-08T07:51:18;9.50;12.90
48328;DHT22;34136;51.022;7.082;2023-01-08T07:54:05;9.50;12.60
48328;DHT22;34136;51.022;7.082;2023-01-08T07:56:53;9.60;12.10
48328;DHT22;34136;51.022;7.082;2023-01-08T07:59:40;9.40;9.60
48328;DHT22;34136;51.022;7.082;2023-01-08T08:06:09;9.40;10.30
48328;DHT22;34136;51.022;7.082;2023-01-08T08:08:56;9.40;10.30
48328;DHT22;34136;51.022;7.082;2023-01-08T08:11:43;9.40;10.30
48328;DHT22;34136;51.022;7.082;2023-01-08T08:14:29;9.40;10.20
48328;DHT22;34136;51.022;7.082;2023-01-08T08:17:15;9.50;10.60
48328;DHT22;34136;51.022;7.082;2023-01-08T08:20:01;9.50;10.60
48328;DHT22;34136;51.022;7.082;2023-01-08T08:22:47;9.60;10.40
48328;DHT22;34136;51.022;7.082;2023-01-08T08:25:34;9.50;10.70
48328;DHT22;34136;51.022;7.082;2023-01-08T08:28:20;9.60;11.00
48328;DHT22;34136;51.022;7.082;2023-01-08T08:31:09;9.60;11.20
48328;DHT22;34136;51.022;7.082;2023-01-08T08:33:55;9.50;12.00
48328;DHT22;34136;51.022;7.082;2023-01-08T08:36:44;9.60;12.20
48328;DHT22;34136;51.022;7.082;2023-01-08T08:39:31;9.60;12.50
48328;DHT22;34136;51.022;7.082;2023-01-08T08:42:17;9.60;12.40
48328;DHT22;34136;51.022;7.082;2023-01-08T08:45:05;9.50;12.80
48328;DHT22;34136;51.022;7.082;2023-01-08T08:47:51;9.40;13.50
48328;DHT22;34136;51.022;7.082;2023-01-08T08:50:38;9.50;14.00
48328;DHT22;34136;51.022;7.082;2023-01-08T08:53:24;9.50;14.30
48328;DHT22;34136;51.022;7.082;2023-01-08T08:56:13;9.40;14.40
48328;DHT22;34136;51.022;7.082;2023-01-08T08:58:59;9.30;15.80
48328;DHT22;34136;51.022;7.082;2023-01-08T09:01:46;9.30;16.10
48328;DHT22;34136;51.022;7.082;2023-01-08T09:04:32;9.30;16.50
48328;DHT22;34136;51.022;7.082;2023-01-08T09:07:19;9.40;16.50
48328;DHT22;34136;51.022;7.082;2023-01-08T09:10:05;9.40;16.10
48328;DHT22;34136;51.022;7.082;2023-01-08T09:12:52;9.40;15.90
48328;DHT22;34136;51.022;7.082;2023-01-08T09:15:38;9.40;16.10
48328;DHT22;34136;51.022;7.082;2023-01-08T09:18:24;9.40;15.70
48328;DHT22;34136;51.022;7.082;2023-01-08T09:21:10;9.40;15.60
48328;DHT22;34136;51.022;7.082;2023-01-08T09:23:56;9.40;15.80
48328;DHT22;34136;51.022;7.082;2023-01-08T09:26:42;9.40;15.90
48328;DHT22;34136;51.022;7.082;2023-01-08T09:29:29;9.50;15.40
48328;DHT22;34136;51.022;7.082;2023-01-08T09:32:15;9.40;15.00
48328;DHT22;34136;51.022;7.082;2023-01-08T09:35:01;9.40;14.80
48328;DHT22;34136;51.022;7.082;2023-01-08T09:37:57;9.40;14.50
48328;DHT22;34136;51.022;7.082;2023-01-08T09:43:38;9.50;14.20
48328;DHT22;34136;51.022;7.082;2023-01-08T09:46:27;9.50;14.10
48328;DHT22;34136;51.022;7.082;2023-01-08T09:49:20;9.60;13.60
48328;DHT22;34136;51.022;7.082;2023-01-08T09:52:11;9.60;13.70
48328;DHT22;34136;51.022;7.082;2023-01-08T09:55:01;9.60;13.40
48328;DHT22;34136;51.022;7.082;2023-01-08T09:57:47;9.70;12.10
48328;DHT22;34136;51.022;7.082;2023-01-08T10:00:34;9.70;11.90
48328;DHT22;34136;51.022;7.082;2023-01-08T10:03:24;9.70;11.80
48328;DHT22;34136;51.022;7.082;2023-01-08T10:06:14;9.70;10.90
48328;DHT22;34136;51.022;7.082;2023-01-08T10:09:01;9.70;10.70
48328;DHT22;34136;51.022;7.082;2023-01-08T10:11:48;9.70;10.50
48328;DHT22;34136;51.022;7.082;2023-01-08T10:14:36;9.70;10.80
48328;DHT22;34136;51.022;7.082;2023-01-08T10:20:27;9.80;11.10
48328;DHT22;34136;51.022;7.082;2023-01-08T10:23:15;9.70;11.30
48328;DHT22;34136;51.022;7.082;2023-01-08T10:26:02;9.70;11.90
48328;DHT22;34136;51.022;7.082;2023-01-08T10:28:48;9.80;12.10
48328;DHT22;34136;51.022;7.082;2023-01-08T10:31:46;9.70;12.40
48328;DHT22;34136;51.022;7.082;2023-01-08T10:34:49;9.70;12.60
48328;DHT22;34136;51.022;7.082;2023-01-08T10:37:40;9.70;13.00
48328;DHT22;34136;51.022;7.082;2023-01-08T10:40:39;9.70;13.10
48328;DHT22;34136;51.022;7.082;2023-01-08T10:43:32;9.80;12.80
48328;DHT22;34136;51.022;7.082;2023-01-08T10:46:43;9.90;12.40
48328;DHT22;34136;51.022;7.082;2023-01-08T10:49:45;10.00;12.10
48328;DHT22;34136;51.022;7.082;2023-01-08T10:52:37;10.10;11.30
48328;DHT22;34136;51.022;7.082;2023-01-08T10:55:27;10.10;10.30
48328;DHT22;34136;51.022;7.082;2023-01-08T10:58:14;10.20;9.30
48328;DHT22;34136;51.022;7.082;2023-01-08T11:04:05;10.40;7.00
48328;DHT22;34136;51.022;7.082;2023-01-08T11:06:52;10.40;6.30
48328;DHT22;34136;51.022;7.082;2023-01-08T11:09:47;10.50;5.70
48328;DHT22;34136;51.022;7.082;2023-01-08T11:12:39;10.50;5.10
48328;DHT22;34136;51.022;7.082;2023-01-08T11:15:41;10.50;4.70
48328;DHT22;34136;51.022;7.082;2023-01-08T11:18:27;10.60;4.50
48328;DHT22;34136;51.022;7.082;2023-01-08T11:21:25;10.60;3.30
48328;DHT22;34136;51.022;7.082;2023-01-08T11:24:21;10.60;2.80
48328;DHT22;34136;51.022;7.082;2023-01-08T11:27:15;10.60;2.70
48328;DHT22;34136;51.022;7.082;2023-01-08T11:30:11;10.70;3.20
48328;DHT22;34136;51.022;7.082;2023-01-08T11:33:09;10.70;2.90
48328;DHT22;34136;51.022;7.082;2023-01-08T11:36:09;10.70;3.00
48328;DHT22;34136;51.022;7.082;2023-01-08T11:38:56;10.70;2.80
48328;DHT22;34136;51.022;7.082;2023-01-08T11:41:57;10.80;2.60
48328;DHT22;34136;51.022;7.082;2023-01-08T11:47:50;10.80;2.30
48328;DHT22;34136;51.022;7.082;2023-01-08T11:50:48;10.90;2.10
48328;DHT22;34136;51.022;7.082;2023-01-08T12:00:46;11.20;1.50
48328;DHT22;34136;51.022;7.082;2023-01-08T12:09:39;11.10;1.00
48328;DHT22;34136;51.022;7.082;2023-01-08T12:21:59;10.90;9.50
48328;DHT22;34136;51.022;7.082;2023-01-08T12:30:49;10.50;14.50
48328;DHT22;34136;51.022;7.082;2023-01-08T12:33:48;10.50;13.90
48328;DHT22;34136;51.022;7.082;2023-01-08T12:36:46;10.50;12.80
48328;DHT22;34136;51.022;7.082;2023-01-08T12:39:42;10.60;12.50
48328;DHT22;34136;51.022;7.082;2023-01-08T12:42:31;10.70;12.80
48328;DHT22;34136;51.022;7.082;2023-01-08T12:45:26;10.50;12.70
48328;DHT22;34136;51.022;7.082;2023-01-08T12:48:29;10.50;13.20
48328;DHT22;34136;51.022;7.082;2023-01-08T12:51:27;10.60;13.60
48328;DHT22;34136;51.022;7.082;2023-01-08T12:54:52;10.50;14.40
48328;DHT22;34136;51.022;7.082;2023-01-08T12:57:46;10.50;12.90
48328;DHT22;34136;51.022;7.082;2023-01-08T13:00:42;10.40;12.90
48328;DHT22;34136;51.022;7.082;2023-01-08T13:03:31;10.30;12.80
48328;DHT22;34136;51.022;7.082;2023-01-08T13:06:19;10.30;13.50
48328;DHT22;34136;51.022;7.082;2023-01-08T13:09:05;10.40;13.30
48328;DHT22;34136;51.022;7.082;2023-01-08T13:11:53;10.50;13.90
48328;DHT22;34136;51.022;7.082;2023-01-08T13:14:46;10.50;12.40
48328;DHT22;34136;51.022;7.082;2023-01-08T13:17:36;10.40;11.90
48328;DHT22;34136;51.022;7.082;2023-01-08T13:20:28;10.40;11.10
48328;DHT22;34136;51.022;7.082;2023-01-08T13:23:23;10.40;11.70
48328;DHT22;34136;51.022;7.082;2023-01-08T13:26:28;10.50;10.80
48328;DHT22;34136;51.022;7.082;2023-01-08T13:29:50;10.40;10.10
48328;DHT22;34136;51.022;7.082;2023-01-08T13:32:46;10.30;9.30
48328;DHT22;34136;51.022;7.082;2023-01-08T13:35:33;10.40;7.50
48328;DHT22;34136;51.022;7.082;2023-01-08T13:38:21;10.40;4.90
48328;DHT22;34136;51.022;7.082;2023-01-08T13:50:20;10.30;5.00
48328;DHT22;34136;51.022;7.082;2023-01-08T13:53:11;10.30;4.40
48328;DHT22;34136;51.022;7.082;2023-01-08T13:55:59;10.40;4.50
48328;DHT22;34136;51.022;7.082;2023-01-08T13:58:52;10.50;4.60
48328;DHT22;34136;51.022;7.082;2023-01-08T14:01:53;10.50;4.20
48328;DHT22;34136;51.022;7.082;2023-01-08T14:04:48;10.50;2.80
48328;DHT22;34136;51.022;7.082;2023-01-08T14:07:37;10.50;4.10
48328;DHT22;34136;51.022;7.082;2023-01-08T14:10:25;10.60;3.00
48328;DHT22;34136;51.022;7.082;2023-01-08T14:13:13;10.60;1.60
48328;DHT22;34136;51.022;7.082;2023-01-08T14:16:03;10.50;1.00
48328;DHT22;34136;51.022;7.082;2023-01-08T14:18:51;10.40;1.00
48328;DHT22;34136;51.022;7.082;2023-01-08T14:21:39;10.40;1.00
48328;DHT22;34136;51.022;7.082;2023-01-08T14:24:25;10.40;1.00
48328;DHT22;34136;51.022;7.082;2023-01-08T14:27:21;10.40;1.00
48328;DHT22;34136;51.022;7.082;2023-01-08T14:30:15;10.40;1.00
48328;DHT22;34136;51.022;7.082;2023-01-08T14:33:02;10.30;1.00
48328;DHT22;34136;51.022;7.082;2023-01-08T14:35:49;10.30;1.00
48328;DHT22;34136;51.022;7.082;2023-01-08T14:38:37;10.30;1.00
48328;DHT22;34136;51.022;7.082;2023-01-08T14:41:35;10.30;1.00
48328;DHT22;34136;51.022;7.082;2023-01-08T14:44:23;10.30;1.00
48328;DHT22;34136;51.022;7.082;2023-01-08T14:47:17;10.20;1.00
48328;DHT22;34136;51.022;7.082;2023-01-08T14:50:05;10.20;1.00
48328;DHT22;34136;51.022;7.082;2023-01-08T14:52:58;10.10;1.00
48328;DHT22;34136;51.022;7.082;2023-01-08T14:55:47;10.20;1.00
48328;DHT22;34136;51.022;7.082;2023-01-08T14:58:40;10.10;1.00
48328;DHT22;34136;51.022;7.082;2023-01-08T15:01:29;10.20;1.00
48328;DHT22;34136;51.022;7.082;2023-01-08T15:04:18;10.30;1.00
48328;DHT22;34136;51.022;7.082;2023-01-08T15:07:08;10.30;1.00
48328;DHT22;34136;51.022;7.082;2023-01-08T15:09:56;10.20;1.00
48328;DHT22;34136;51.022;7.082;2023-01-08T15:12:43;10.30;1.00
48328;DHT22;34136;51.022;7.082;2023-01-08T15:15:30;10.20;1.00
48328;DHT22;34136;51.022;7.082;2023-01-08T15:18:17;10.30;1.00
48328;DHT22;34136;51.022;7.082;2023-01-08T15:21:03;10.30;1.00
48328;DHT22;34136;51.022;7.082;2023-01-08T15:23:50;10.20;1.00
48328;DHT22;34136;51.022;7.082;2023-01-08T15:26:40;10.20;1.00
48328;DHT22;34136;51.022;7.082;2023-01-08T15:29:29;10.30;1.00
48328;DHT22;34136;51.022;7.082;2023-01-08T15:35:22;10.30;1.00
48328;DHT22;34136;51.022;7.082;2023-01-08T15:38:08;10.30;1.00
48328;DHT22;34136;51.022;7.082;2023-01-08T15:40:54;10.30;1.00
48328;DHT22;34136;51.022;7.082;2023-01-08T15:43:40;10.20;1.00
48328;DHT22;34136;51.022;7.082;2023-01-08T15:46:26;10.20;1.00
48328;DHT22;34136;51.022;7.082;2023-01-08T15:49:13;10.20;1.00
48328;DHT22;34136;51.022;7.082;2023-01-08T15:51:59;10.20;1.00
48328;DHT22;34136;51.022;7.082;2023-01-08T15:54:45;10.20;1.00
48328;DHT22;34136;51.022;7.082;2023-01-08T15:57:31;10.20;1.00
48328;DHT22;34136;51.022;7.082;2023-01-08T16:00:18;10.20;1.00
48328;DHT22;34136;51.022;7.082;2023-01-08T16:03:05;10.20;1.00
48328;DHT22;34136;51.022;7.082;2023-01-08T16:05:52;10.10;1.00
48328;DHT22;34136;51.022;7.082;2023-01-08T16:08:38;10.10;1.00
48328;DHT22;34136;51.022;7.082;2023-01-08T16:11:25;10.00;1.00
48328;DHT22;34136;51.022;7.082;2023-01-08T16:14:11;9.90;1.00
48328;DHT22;34136;51.022;7.082;2023-01-08T16:16:57;9.90;1.00
48328;DHT22;34136;51.022;7.082;2023-01-08T16:19:43;9.90;1.00
48328;DHT22;34136;51.022;7.082;2023-01-08T20:30:14;8.60;6.80
48328;DHT22;34136;51.022;7.082;2023-01-08T20:33:00;8.50;6.80
48328;DHT22;34136;51.022;7.082;2023-01-08T20:35:46;8.60;6.90
48328;DHT22;34136;51.022;7.082;2023-01-08T20:38:32;8.60;6.50
48328;DHT22;34136;51.022;7.082;2023-01-08T20:41:18;8.60;7.20
48328;DHT22;34136;51.022;7.082;2023-01-08T20:44:04;8.60;7.00
48328;DHT22;34136;51.022;7.082;2023-01-08T20:46:50;8.60;7.00
48328;DHT22;34136;51.022;7.082;2023-01-08T20:49:36;8.60;6.70
48328;DHT22;34136;51.022;7.082;2023-01-08T20:52:22;8.60;6.90
48328;DHT22;34136;51.022;7.082;2023-01-08T20:55:08;8.60;7.40
48328;DHT22;34136;51.022;7.082;2023-01-08T20:57:54;8.60;7.50
48328;DHT22;34136;51.022;7.082;2023-01-08T21:00:41;8.60;7.30
48328;DHT22;34136;51.022;7.082;2023-01-08T21:03:27;8.60;7.40
48328;DHT22;34136;51.022;7.082;2023-01-08T21:06:22;8.70;7.20
48328;DHT22;34136;51.022;7.082;2023-01-08T21:09:10;8.70;7.20
48328;DHT22;34136;51.022;7.082;2023-01-08T21:11:59;8.80;7.20
48328;DHT22;34136;51.022;7.082;2023-01-08T21:14:53;8.80;6.70
48328;DHT22;34136;51.022;7.082;2023-01-08T21:17:39;8.80;6.90
48328;DHT22;34136;51.022;7.082;2023-01-08T21:20:25;8.90;6.90
48328;DHT22;34136;51.022;7.082;2023-01-08T21:23:11;8.90;6.50
48328;DHT22;34136;51.022;7.082;2023-01-08T21:26:03;8.90;6.70
48328;DHT22;34136;51.022;7.082;2023-01-08T21:28:49;8.90;6.60
48328;DHT22;34136;51.022;7.082;2023-01-08T21:31:36;9.00;6.30
48328;DHT22;34136;51.022;7.082;2023-01-08T21:34:22;9.00;6.40
48328;DHT22;34136;51.022;7.082;2023-01-08T21:37:09;9.00;6.50
48328;DHT22;34136;51.022;7.082;2023-01-08T21:39:55;9.10;6.50
48328;DHT22;34136;51.022;7.082;2023-01-08T21:42:41;9.10;6.50
48328;DHT22;34136;51.022;7.082;2023-01-08T21:45:27;9.10;6.20
48328;DHT22;34136;51.022;7.082;2023-01-08T21:48:13;9.10;6.10
48328;DHT22;34136;51.022;7.082;2023-01-08T21:51:00;9.20;5.80
48328;DHT22;34136;51.022;7.082;2023-01-08T21:53:46;9.20;6.20
48328;DHT22;34136;51.022;7.082;2023-01-08T21:56:32;9.20;6.30
48328;DHT22;34136;51.022;7.082;2023-01-08T21:59:18;9.30;6.30
48328;DHT22;34136;51.022;7.082;2023-01-08T22:02:05;9.20;5.90
48328;DHT22;34136;51.022;7.082;2023-01-08T22:04:55;9.30;6.00
48328;DHT22;34136;51.022;7.082;2023-01-08T22:07:41;9.30;6.00
48328;DHT22;34136;51.022;7.082;2023-01-08T22:10:27;9.30;6.10
48328;DHT22;34136;51.022;7.082;2023-01-08T22:13:14;9.20;6.00
48328;DHT22;34136;51.022;7.082;2023-01-08T22:16:02;9.20;6.00
48328;DHT22;34136;51.022;7.082;2023-01-08T22:18:48;9.20;5.90
48328;DHT22;34136;51.022;7.082;2023-01-08T22:21:35;9.20;5.90
48328;DHT22;34136;51.022;7.082;2023-01-08T22:24:20;9.30;5.80
48328;DHT22;34136;51.022;7.082;2023-01-08T22:27:07;9.30;6.00
48328;DHT22;34136;51.022;7.082;2023-01-08T22:29:53;9.30;6.60
48328;DHT22;34136;51.022;7.082;2023-01-08T22:32:39;9.30;7.30
48328;DHT22;34136;51.022;7.082;2023-01-08T22:35:25;9.30;9.00
48328;DHT22;34136;51.022;7.082;2023-01-08T22:38:19;9.30;9.50
48328;DHT22;34136;51.022;7.082;2023-01-08T22:41:18;9.30;10.30
48328;DHT22;34136;51.022;7.082;2023-01-08T22:44:04;9.20;11.20
48328;DHT22;34136;51.022;7.082;2023-01-08T22:46:51;9.10;12.10
48328;DHT22;34136;51.022;7.082;2023-01-08T22:49:37;9.10;13.00
48328;DHT22;34136;51.022;7.082;2023-01-08T22:52:24;9.10;13.70
48328;DHT22;34136;51.022;7.082;2023-01-08T22:55:13;9.10;14.40
48328;DHT22;34136;51.022;7.082;2023-01-08T22:57:59;9.10;14.60
48328;DHT22;34136;51.022;7.082;2023-01-08T23:00:45;9.10;14.70
48328;DHT22;34136;51.022;7.082;2023-01-08T23:03:31;9.10;15.20
48328;DHT22;34136;51.022;7.082;2023-01-08T23:06:18;9.00;16.00
48328;DHT22;34136;51.022;7.082;2023-01-08T23:09:04;8.90;16.50
48328;DHT22;34136;51.022;7.082;2023-01-08T23:11:50;8.80;17.10
48328;DHT22;34136;51.022;7.082;2023-01-08T23:14:38;8.90;17.40
48328;DHT22;34136;51.022;7.082;2023-01-08T23:17:24;8.80;17.80
48328;DHT22;34136;51.022;7.082;2023-01-08T23:20:11;8.80;18.00